createdAt,value
2017-04-08T00:00:46.435Z,69.50
2017-04-08T00:01:44.326Z,69.50
2017-04-08T00:02:41.815Z,69.50
2017-04-08T00:03:40.090Z,69.50
2017-04-08T00:04:37.956Z,69.40
2017-04-08T00:05:35.842Z,69.50
2017-04-08T00:06:33.809Z,69.50
2017-04-08T00:07:31.734Z,69.70
2017-04-08T00:08:29.750Z,69.60
2017-04-08T00:09:27.663Z,69.60
2017-04-08T00:10:25.545Z,69.70
2017-04-08T00:11:23.462Z,69.80
2017-04-08T00:12:21.335Z,69.80
2017-04-08T00:13:19.214Z,69.90
2017-04-08T00:14:17.092Z,69.90
2017-04-08T00:15:15.035Z,69.80
2017-04-08T00:16:12.926Z,69.80
2017-04-08T00:17:10.809Z,69.70
2017-04-08T00:18:08.725Z,69.80
2017-04-08T00:19:06.604Z,69.90
2017-04-08T00:20:04.829Z,69.90
2017-04-08T00:21:02.782Z,70.10
2017-04-08T00:22:00.667Z,69.90
2017-04-08T00:22:58.565Z,69.90
2017-04-08T00:23:56.494Z,69.90
2017-04-08T00:24:54.720Z,70.10
2017-04-08T00:25:52.601Z,70.10
2017-04-08T00:26:50.540Z,70.10
2017-04-08T00:27:48.417Z,69.80
2017-04-08T00:28:46.275Z,69.70
2017-04-08T00:29:44.137Z,69.80
2017-04-08T00:30:42.016Z,69.80
2017-04-08T00:31:40.333Z,69.80
2017-04-08T00:32:38.289Z,69.70
2017-04-08T00:33:36.211Z,69.70
2017-04-08T00:34:34.089Z,69.80
2017-04-08T00:35:31.979Z,69.90
2017-04-08T00:36:29.862Z,69.90
2017-04-08T00:37:27.714Z,70.10
2017-04-08T00:38:25.614Z,70.30
2017-04-08T00:39:23.490Z,70.30
2017-04-08T00:40:21.338Z,70.30
2017-04-08T00:41:19.223Z,70.10
2017-04-08T00:42:17.094Z,70.30
2017-04-08T00:43:14.590Z,70.30
2017-04-08T00:44:13.369Z,70.30
2017-04-08T00:45:11.249Z,70.30
2017-04-08T00:46:09.118Z,70.50
2017-04-08T00:47:06.983Z,70.50
2017-04-08T00:48:04.859Z,70.40
2017-04-08T00:49:02.367Z,70.40
2017-04-08T00:50:00.286Z,70.30
2017-04-08T00:50:58.194Z,70.30
2017-04-08T00:51:56.078Z,70.40
2017-04-08T00:52:54.439Z,70.50
2017-04-08T00:53:52.686Z,70.50
2017-04-08T00:54:50.558Z,70.50
2017-04-08T00:55:48.478Z,70.40
2017-04-08T00:56:45.969Z,70.50
2017-04-08T00:57:43.850Z,70.40
2017-04-08T00:58:42.092Z,70.50
2017-04-08T00:59:39.618Z,70.50
2017-04-08T01:00:37.538Z,70.50
2017-04-08T01:01:35.472Z,70.60
2017-04-08T01:02:33.205Z,70.60
2017-04-08T01:03:31.479Z,70.70
2017-04-08T01:04:29.403Z,70.70
2017-04-08T01:05:27.333Z,70.80
2017-04-08T01:06:24.822Z,70.80
2017-04-08T01:07:22.763Z,70.70
2017-04-08T01:08:20.322Z,70.70
2017-04-08T01:09:18.240Z,70.90
2017-04-08T01:10:16.190Z,70.90
2017-04-08T01:11:14.462Z,71.10
2017-04-08T01:12:12.770Z,71.10
2017-04-08T01:13:10.690Z,71.20
2017-04-08T01:14:08.690Z,71.20
2017-04-08T01:15:06.578Z,71.20
2017-04-08T01:16:04.461Z,71.20
2017-04-08T01:17:02.711Z,71.20
2017-04-08T01:18:00.714Z,71.20
2017-04-08T01:18:58.623Z,71.20
2017-04-08T01:19:56.090Z,71.20
2017-04-08T01:20:53.609Z,71.30
2017-04-08T01:21:51.481Z,71.50
2017-04-08T01:22:48.946Z,71.50
2017-04-08T01:23:47.174Z,71.50
2017-04-08T01:24:45.099Z,71.40
2017-04-08T01:25:42.962Z,71.30
2017-04-08T01:26:40.835Z,71.30
2017-04-08T01:27:38.710Z,71.30
2017-04-08T01:28:36.577Z,71.20
2017-04-08T01:29:34.054Z,71.20
2017-04-08T01:30:31.573Z,71.20
2017-04-08T01:31:29.826Z,71.20
2017-04-08T01:32:27.674Z,71.30
2017-04-08T01:33:25.542Z,71.20
2017-04-08T01:34:23.580Z,71.20
2017-04-08T01:35:21.485Z,71.20
2017-04-08T01:36:19.443Z,71.30
2017-04-08T01:37:17.311Z,71.30
2017-04-08T01:38:15.566Z,71.40
2017-04-08T01:39:13.810Z,71.40
2017-04-08T01:40:11.718Z,71.30
2017-04-08T01:41:09.587Z,71.40
2017-04-08T01:42:07.550Z,71.40
2017-04-08T01:43:05.440Z,71.40
2017-04-08T01:44:03.306Z,71.40
2017-04-08T01:45:01.188Z,71.40
2017-04-08T01:45:59.417Z,71.40
2017-04-08T01:46:57.307Z,71.50
2017-04-08T01:47:55.206Z,71.60
2017-04-08T01:48:53.062Z,71.60
2017-04-08T01:49:50.942Z,71.60
2017-04-08T01:50:48.961Z,71.60
2017-04-08T01:51:46.819Z,71.70
2017-04-08T01:52:44.729Z,71.70
2017-04-08T01:53:43.038Z,71.70
2017-04-08T01:54:41.278Z,71.60
2017-04-08T01:55:39.274Z,71.60
2017-04-08T01:56:37.163Z,71.70
2017-04-08T01:57:35.014Z,71.70
2017-04-08T01:58:32.491Z,71.70
2017-04-08T01:59:30.007Z,71.80
2017-04-08T02:00:27.882Z,71.80
2017-04-08T02:01:25.822Z,71.90
2017-04-08T02:02:23.748Z,72.00
2017-04-08T02:03:21.982Z,72.10
2017-04-08T02:04:19.891Z,72.20
2017-04-08T02:05:17.855Z,72.30
2017-04-08T02:06:15.763Z,72.30
2017-04-08T02:07:13.691Z,72.30
2017-04-08T02:08:11.566Z,72.40
2017-04-08T02:09:09.460Z,72.30
2017-04-08T02:10:07.346Z,72.20
2017-04-08T02:11:05.270Z,72.30
2017-04-08T02:12:03.188Z,72.30
2017-04-08T02:13:01.050Z,72.40
2017-04-08T02:13:58.578Z,72.40
2017-04-08T02:14:56.055Z,72.40
2017-04-08T02:15:53.910Z,72.30
2017-04-08T02:16:51.415Z,72.30
2017-04-08T02:17:49.662Z,72.40
2017-04-08T02:18:47.729Z,72.20
2017-04-08T02:19:45.607Z,72.00
2017-04-08T02:20:43.886Z,72.00
2017-04-08T02:21:41.750Z,72.00
2017-04-08T02:22:39.662Z,71.90
2017-04-08T02:23:37.743Z,71.80
2017-04-08T02:24:36.008Z,71.90
2017-04-08T02:25:33.490Z,71.90
2017-04-08T02:26:31.354Z,72.00
2017-04-08T02:27:29.211Z,72.10
2017-04-08T02:28:27.169Z,72.00
2017-04-08T02:29:24.626Z,72.00
2017-04-08T02:30:22.485Z,72.30
2017-04-08T02:31:20.566Z,72.60
2017-04-08T02:32:18.423Z,72.80
2017-04-08T02:33:16.293Z,73.10
2017-04-08T02:34:13.808Z,73.10
2017-04-08T02:35:11.682Z,73.60
2017-04-08T02:36:09.601Z,73.80
2017-04-08T02:37:07.478Z,73.90
2017-04-08T02:38:05.343Z,74.00
2017-04-08T02:39:03.310Z,74.00
2017-04-08T02:40:01.205Z,74.10
2017-04-08T02:40:59.651Z,74.10
2017-04-08T02:41:57.541Z,74.00
2017-04-08T02:42:55.773Z,73.90
2017-04-08T02:43:53.642Z,73.70
2017-04-08T02:44:51.502Z,73.60
2017-04-08T02:45:49.429Z,73.70
2017-04-08T02:46:47.308Z,73.50
2017-04-08T02:47:45.554Z,73.50
2017-04-08T02:48:43.425Z,73.50
2017-04-08T02:49:41.287Z,73.20
2017-04-08T02:50:39.155Z,73.10
2017-04-08T02:51:37.084Z,73.10
2017-04-08T02:52:34.937Z,73.20
2017-04-08T02:53:32.805Z,73.30
2017-04-08T02:54:30.663Z,73.20
2017-04-08T02:55:28.534Z,73.10
2017-04-08T02:56:26.426Z,73.20
2017-04-08T02:57:24.349Z,73.20
2017-04-08T02:58:22.223Z,73.20
2017-04-08T02:59:20.094Z,73.20
2017-04-08T03:00:18.363Z,73.20
2017-04-08T03:01:15.916Z,73.20
2017-04-08T03:02:13.955Z,73.30
2017-04-08T03:03:11.848Z,73.50
2017-04-08T03:04:09.734Z,73.60
2017-04-08T03:05:07.586Z,73.70
2017-04-08T03:06:05.455Z,73.80
2017-04-08T03:07:03.382Z,73.80
2017-04-08T03:08:01.242Z,73.90
2017-04-08T03:08:59.274Z,74.00
2017-04-08T03:09:57.505Z,74.20
2017-04-08T03:10:55.378Z,74.40
2017-04-08T03:11:53.250Z,74.60
2017-04-08T03:12:50.726Z,74.60
2017-04-08T03:13:48.625Z,74.70
2017-04-08T03:14:46.558Z,74.70
2017-04-08T03:15:44.531Z,74.80
2017-04-08T03:16:42.394Z,75.00
2017-04-08T03:17:40.286Z,75.10
2017-04-08T03:18:38.164Z,75.10
2017-04-08T03:19:35.630Z,75.10
2017-04-08T03:20:33.539Z,75.00
2017-04-08T03:21:31.391Z,75.00
2017-04-08T03:22:28.851Z,75.00
2017-04-08T03:23:26.722Z,74.70
2017-04-08T03:24:24.582Z,74.40
2017-04-08T03:25:22.450Z,74.40
2017-04-08T03:26:20.354Z,74.40
2017-04-08T03:27:18.254Z,74.40
2017-04-08T03:28:16.144Z,74.30
2017-04-08T03:29:14.018Z,74.10
2017-04-08T03:30:11.889Z,74.00
2017-04-08T03:31:09.750Z,73.70
2017-04-08T03:32:07.650Z,73.60
2017-04-08T03:33:05.523Z,73.80
2017-04-08T03:34:03.762Z,73.90
2017-04-08T03:35:01.633Z,74.00
2017-04-08T03:35:59.513Z,74.00
2017-04-08T03:36:57.763Z,74.00
2017-04-08T03:37:55.257Z,74.00
2017-04-08T03:38:53.129Z,73.80
2017-04-08T03:39:51.086Z,73.60
2017-04-08T03:40:48.947Z,73.50
2017-04-08T03:41:46.814Z,73.50
2017-04-08T03:42:44.783Z,73.60
2017-04-08T03:43:42.698Z,73.70
2017-04-08T03:44:40.182Z,73.70
2017-04-08T03:45:38.053Z,73.60
2017-04-08T03:46:35.918Z,73.40
2017-04-08T03:47:33.882Z,73.40
2017-04-08T03:48:31.333Z,73.40
2017-04-08T03:49:28.834Z,73.20
2017-04-08T03:50:26.706Z,73.00
2017-04-08T03:51:24.942Z,73.00
2017-04-08T03:52:22.874Z,73.00
2017-04-08T03:53:20.751Z,73.00
2017-04-08T03:54:18.618Z,73.00
2017-04-08T03:55:16.526Z,73.00
2017-04-08T03:56:14.746Z,73.10
2017-04-08T03:57:12.795Z,73.00
2017-04-08T03:58:10.268Z,73.00
2017-04-08T03:59:08.314Z,73.10
2017-04-08T04:00:06.298Z,73.10
2017-04-08T04:01:04.248Z,73.20
2017-04-08T04:02:02.115Z,73.40
2017-04-08T04:02:59.970Z,73.40
2017-04-08T04:03:57.830Z,73.40
2017-04-08T04:04:55.726Z,73.40
2017-04-08T04:05:53.585Z,73.30
2017-04-08T04:06:51.518Z,73.10
2017-04-08T04:07:49.387Z,73.00
2017-04-08T04:08:47.271Z,73.00
2017-04-08T04:09:45.138Z,72.90
2017-04-08T04:10:42.998Z,73.00
2017-04-08T04:11:40.609Z,73.00
2017-04-08T04:12:38.522Z,72.70
2017-04-08T04:13:36.447Z,72.60
2017-04-08T04:14:33.922Z,72.60
2017-04-08T04:15:31.850Z,72.50
2017-04-08T04:16:29.348Z,72.50
2017-04-08T04:17:27.237Z,72.50
2017-04-08T04:18:25.164Z,72.40
2017-04-08T04:19:23.058Z,72.30
2017-04-08T04:20:20.937Z,72.20
2017-04-08T04:21:18.426Z,72.20
2017-04-08T04:22:16.316Z,71.70
2017-04-08T04:23:14.199Z,71.70
2017-04-08T04:24:12.488Z,71.90
2017-04-08T04:25:10.361Z,71.90
2017-04-08T04:26:08.258Z,71.90
2017-04-08T04:27:06.159Z,71.70
2017-04-08T04:28:04.056Z,71.90
2017-04-08T04:29:01.906Z,71.90
2017-04-08T04:30:00.178Z,72.00
2017-04-08T04:30:58.399Z,72.10
2017-04-08T04:31:56.269Z,71.90
2017-04-08T04:32:54.126Z,72.00
2017-04-08T04:33:51.968Z,72.10
2017-04-08T04:34:49.442Z,72.10
2017-04-08T04:35:47.422Z,72.30
2017-04-08T04:36:45.301Z,72.50
2017-04-08T04:37:43.163Z,72.60
2017-04-08T04:38:41.089Z,73.00
2017-04-08T04:39:38.950Z,73.30
2017-04-08T04:40:36.831Z,73.50
2017-04-08T04:41:34.354Z,73.50
2017-04-08T04:42:32.234Z,73.70
2017-04-08T04:43:30.106Z,73.70
2017-04-08T04:44:28.015Z,73.70
2017-04-08T04:45:25.898Z,73.80
2017-04-08T04:46:23.359Z,73.80
2017-04-08T04:47:21.249Z,74.20
2017-04-08T04:48:19.118Z,74.40
2017-04-08T04:49:17.338Z,74.60
2017-04-08T04:50:15.194Z,74.80
2017-04-08T04:51:13.058Z,75.10
2017-04-08T04:52:10.934Z,75.30
2017-04-08T04:53:08.827Z,75.50
2017-04-08T04:54:06.682Z,75.60
2017-04-08T04:55:04.545Z,75.50
2017-04-08T04:56:02.405Z,75.40
2017-04-08T04:56:59.867Z,75.40
2017-04-08T04:57:57.826Z,75.20
2017-04-08T04:58:55.726Z,75.10
2017-04-08T04:59:53.193Z,75.10
2017-04-08T05:00:51.440Z,74.90
2017-04-08T05:01:49.711Z,74.70
2017-04-08T05:02:47.565Z,74.60
2017-04-08T05:03:45.434Z,74.60
2017-04-08T05:04:43.718Z,74.60
2017-04-08T05:05:41.598Z,74.60
2017-04-08T05:06:39.464Z,74.70
2017-04-08T05:07:37.323Z,74.80
2017-04-08T05:08:35.207Z,74.90
2017-04-08T05:09:33.107Z,75.10
2017-04-08T05:10:30.999Z,75.10
2017-04-08T05:11:28.866Z,75.00
2017-04-08T05:12:26.746Z,74.80
2017-04-08T05:13:24.970Z,74.80
2017-04-08T05:14:22.824Z,74.70
2017-04-08T05:15:20.702Z,74.60
2017-04-08T05:16:18.250Z,74.60
2017-04-08T05:17:16.235Z,74.50
2017-04-08T05:18:14.518Z,74.30
2017-04-08T05:19:12.010Z,74.30
2017-04-08T05:20:09.868Z,74.10
2017-04-08T05:21:07.735Z,74.00
2017-04-08T05:22:05.635Z,74.00
2017-04-08T05:23:03.517Z,73.70
2017-04-08T05:24:01.374Z,73.60
2017-04-08T05:24:59.234Z,73.30
2017-04-08T05:25:57.102Z,73.50
2017-04-08T05:26:54.987Z,73.50
2017-04-08T05:27:52.907Z,73.50
2017-04-08T05:28:50.762Z,73.60
2017-04-08T05:29:48.230Z,73.60
2017-04-08T05:30:46.086Z,73.60
2017-04-08T05:31:43.957Z,73.70
2017-04-08T05:32:41.822Z,73.70
2017-04-08T05:33:39.332Z,73.70
2017-04-08T05:34:37.197Z,73.60
2017-04-08T05:35:35.154Z,73.60
2017-04-08T05:36:33.036Z,73.70
2017-04-08T05:37:30.906Z,73.80
2017-04-08T05:38:28.778Z,73.60
2017-04-08T05:39:27.051Z,73.40
2017-04-08T05:40:24.925Z,73.30
2017-04-08T05:41:22.796Z,73.20
2017-04-08T05:42:20.402Z,73.20
2017-04-08T05:43:18.258Z,73.10
2017-04-08T05:44:16.118Z,73.00
2017-04-08T05:45:14.010Z,73.10
2017-04-08T05:46:11.904Z,73.00
2017-04-08T05:47:09.754Z,73.00
2017-04-08T05:48:07.665Z,73.00
2017-04-08T05:49:05.559Z,72.90
2017-04-08T05:50:03.806Z,73.00
2017-04-08T05:51:01.704Z,73.00
2017-04-08T05:51:59.570Z,72.90
2017-04-08T05:52:57.051Z,72.90
2017-04-08T05:53:54.899Z,72.90
2017-04-08T05:54:52.807Z,72.70
2017-04-08T05:55:50.688Z,72.70
2017-04-08T05:56:48.209Z,72.70
2017-04-08T05:57:46.085Z,72.80
2017-04-08T05:58:43.975Z,72.80
2017-04-08T05:59:41.833Z,72.70
2017-04-08T06:00:39.702Z,72.80
2017-04-08T06:01:37.562Z,73.00
2017-04-08T06:02:35.494Z,73.20
2017-04-08T06:03:33.360Z,73.30
2017-04-08T06:04:31.246Z,73.50
2017-04-08T06:05:29.098Z,73.70
2017-04-08T06:06:26.993Z,73.70
2017-04-08T06:07:24.850Z,73.60
2017-04-08T06:08:22.331Z,73.50
2017-04-08T06:09:20.203Z,73.40
2017-04-08T06:10:18.072Z,73.40
2017-04-08T06:11:16.395Z,73.50
2017-04-08T06:12:14.258Z,73.60
2017-04-08T06:13:12.154Z,73.60
2017-04-08T06:14:09.913Z,73.60
2017-04-08T06:15:07.773Z,73.40
2017-04-08T06:16:05.642Z,73.30
2017-04-08T06:17:03.566Z,73.10
2017-04-08T06:18:01.455Z,72.90
2017-04-08T06:18:59.698Z,72.80
2017-04-08T06:19:57.630Z,72.80
2017-04-08T06:20:55.514Z,72.80
2017-04-08T06:21:53.414Z,72.60
2017-04-08T06:22:51.270Z,72.90
2017-04-08T06:23:48.767Z,72.80
2017-04-08T06:24:46.617Z,73.20
2017-04-08T06:25:44.586Z,73.40
2017-04-08T06:26:42.478Z,73.60
2017-04-08T06:27:40.361Z,73.70
2017-04-08T06:28:38.246Z,73.50
2017-04-08T06:29:36.471Z,73.40
2017-04-08T06:30:34.345Z,73.50
2017-04-08T06:31:32.286Z,73.60
2017-04-08T06:32:30.156Z,73.60
2017-04-08T06:33:28.033Z,73.70
2017-04-08T06:34:25.922Z,73.70
2017-04-08T06:35:23.850Z,73.70
2017-04-08T06:36:21.727Z,73.90
2017-04-08T06:37:19.626Z,74.10
2017-04-08T06:38:17.530Z,74.30
2017-04-08T06:39:15.422Z,74.30
2017-04-08T06:40:12.879Z,74.30
2017-04-08T06:41:10.730Z,74.40
2017-04-08T06:42:08.590Z,74.50
2017-04-08T06:43:06.492Z,74.40
2017-04-08T06:44:04.716Z,74.30
2017-04-08T06:45:02.591Z,74.10
2017-04-08T06:46:00.463Z,74.00
2017-04-08T06:46:58.346Z,73.90
2017-04-08T06:47:56.218Z,73.80
2017-04-08T06:48:54.137Z,73.70
2017-04-08T06:49:52.390Z,73.60
2017-04-08T06:50:50.634Z,73.50
2017-04-08T06:51:48.511Z,73.30
2017-04-08T06:52:46.370Z,73.20
2017-04-08T06:53:44.284Z,73.20
2017-04-08T06:54:42.207Z,73.10
2017-04-08T06:55:39.670Z,73.10
2017-04-08T06:56:37.161Z,73.10
2017-04-08T06:57:35.106Z,73.00
2017-04-08T06:58:33.023Z,72.90
2017-04-08T06:59:31.257Z,72.80
2017-04-08T07:00:29.181Z,72.60
2017-04-08T07:01:27.137Z,72.80
2017-04-08T07:02:26.855Z,73.00
2017-04-08T07:03:24.915Z,73.10
2017-04-08T07:04:22.801Z,73.30
2017-04-08T07:05:21.026Z,73.30
2017-04-08T07:06:18.946Z,73.20
2017-04-08T07:07:16.407Z,73.20
2017-04-08T07:08:14.671Z,72.90
2017-04-08T07:09:12.274Z,72.90
2017-04-08T07:10:10.170Z,72.60
2017-04-08T07:11:08.525Z,72.40
2017-04-08T07:12:06.439Z,72.40
2017-04-08T07:13:04.354Z,72.30
2017-04-08T07:14:02.235Z,72.20
2017-04-08T07:15:00.118Z,72.10
2017-04-08T07:15:58.088Z,72.10
2017-04-08T07:16:55.969Z,72.20
2017-04-08T07:17:53.867Z,72.10
2017-04-08T07:18:51.398Z,72.10
2017-04-08T07:19:49.923Z,72.10
2017-04-08T07:20:47.859Z,71.70
2017-04-08T07:21:45.381Z,71.70
2017-04-08T07:22:43.618Z,71.60
2017-04-08T07:23:41.514Z,71.80
2017-04-08T07:24:39.395Z,71.70
2017-04-08T07:25:37.267Z,71.50
2017-04-08T07:26:35.117Z,71.50
2017-04-08T07:27:33.019Z,71.40
2017-04-08T07:28:30.903Z,71.60
2017-04-08T07:29:28.838Z,71.70
2017-04-08T07:30:26.703Z,71.70
2017-04-08T07:31:24.957Z,71.70
2017-04-08T07:32:22.826Z,71.70
2017-04-08T07:33:20.701Z,71.50
2017-04-08T07:34:18.206Z,71.50
2017-04-08T07:35:16.130Z,71.60
2017-04-08T07:36:14.064Z,71.70
2017-04-08T07:37:11.544Z,71.70
2017-04-08T07:38:09.475Z,71.50
2017-04-08T07:39:07.443Z,71.20
2017-04-08T07:40:07.838Z,71.10
2017-04-08T07:41:05.779Z,71.00
2017-04-08T07:42:04.047Z,71.00
2017-04-08T07:43:01.586Z,71.00
2017-04-08T07:43:59.455Z,70.70
2017-04-08T07:44:57.310Z,70.60
2017-04-08T07:45:55.274Z,70.20
2017-04-08T07:46:53.174Z,69.90
2017-04-08T07:47:51.078Z,70.30
2017-04-08T07:48:48.961Z,70.70
2017-04-08T07:49:46.876Z,71.10
2017-04-08T07:50:44.878Z,71.50
2017-04-08T07:51:43.125Z,71.70
2017-04-08T07:52:41.111Z,71.90
2017-04-08T07:53:39.002Z,72.00
2017-04-08T07:54:37.170Z,71.70
2017-04-08T07:55:35.063Z,71.50
2017-04-08T07:56:33.338Z,71.20
2017-04-08T07:57:31.595Z,71.10
2017-04-08T07:58:30.032Z,70.90
2017-04-08T07:59:27.927Z,70.50
2017-04-08T08:00:26.146Z,70.40
2017-04-08T08:01:24.178Z,70.20
2017-04-08T08:02:22.091Z,69.90
2017-04-08T08:03:19.655Z,69.80
2017-04-08T08:04:17.994Z,70.30
2017-04-08T08:05:15.995Z,69.90
2017-04-08T08:06:14.460Z,69.60
2017-04-08T08:07:12.734Z,69.10
2017-04-08T08:08:10.597Z,69.10
2017-04-08T08:09:09.234Z,69.10
2017-04-08T08:10:07.154Z,68.90
2017-04-08T08:11:05.235Z,68.80
2017-04-08T08:12:03.127Z,69.00
2017-04-08T08:13:00.637Z,69.00
2017-04-08T08:13:58.508Z,68.80
2017-04-08T08:14:56.452Z,68.70
2017-04-08T08:15:54.450Z,68.50
2017-04-08T08:16:51.915Z,68.50
2017-04-08T08:17:49.798Z,68.20
2017-04-08T08:18:47.662Z,68.00
2017-04-08T08:19:45.531Z,67.90
2017-04-08T08:20:43.460Z,67.70
2017-04-08T08:21:41.022Z,67.70
2017-04-08T08:22:38.940Z,67.90
2017-04-08T08:23:36.823Z,67.60
2017-04-08T08:24:34.691Z,67.50
2017-04-08T08:25:32.553Z,67.40
2017-04-08T08:26:30.041Z,67.50
2017-04-08T08:27:27.627Z,67.50
2017-04-08T08:28:25.503Z,67.20
2017-04-08T08:29:23.394Z,67.20
2017-04-08T08:30:21.675Z,67.20
2017-04-08T08:31:19.833Z,67.20
2017-04-08T08:32:17.710Z,67.00
2017-04-08T08:33:15.317Z,67.00
2017-04-08T08:34:13.214Z,67.20
2017-04-08T08:35:11.079Z,67.40
2017-04-08T08:36:08.566Z,67.40
2017-04-08T08:37:06.430Z,67.00
2017-04-08T08:38:03.946Z,67.00
2017-04-08T08:39:01.874Z,66.80
2017-04-08T08:39:59.796Z,66.80
2017-04-08T08:40:57.659Z,66.50
2017-04-08T08:41:55.527Z,66.30
2017-04-08T08:42:53.842Z,66.30
2017-04-08T08:43:51.715Z,66.20
2017-04-08T08:44:49.642Z,66.00
2017-04-08T08:45:47.618Z,66.10
2017-04-08T08:46:45.498Z,65.90
2017-04-08T08:47:43.355Z,66.00
2017-04-08T08:48:41.227Z,66.30
2017-04-08T08:49:39.085Z,66.40
2017-04-08T08:50:36.978Z,66.40
2017-04-08T08:51:34.446Z,66.40
2017-04-08T08:52:32.323Z,65.80
2017-04-08T08:53:30.208Z,65.60
2017-04-08T08:54:28.070Z,66.00
2017-04-08T08:55:25.950Z,65.80
2017-04-08T08:56:23.850Z,65.90
2017-04-08T08:57:21.734Z,66.20
2017-04-08T08:58:19.206Z,66.20
2017-04-08T08:59:17.097Z,65.90
2017-04-08T09:00:15.006Z,65.70
2017-04-08T09:01:12.966Z,65.60
2017-04-08T09:02:10.876Z,65.30
2017-04-08T09:03:08.430Z,65.30
2017-04-08T09:04:05.920Z,64.90
2017-04-08T09:05:04.147Z,64.20
2017-04-08T09:06:02.010Z,64.50
2017-04-08T09:06:59.914Z,64.20
2017-04-08T09:07:57.838Z,64.20
2017-04-08T09:08:55.695Z,64.00
2017-04-08T09:09:53.591Z,64.00
2017-04-08T09:10:51.838Z,63.70
2017-04-08T09:11:49.706Z,63.40
2017-04-08T09:12:47.591Z,63.00
2017-04-08T09:13:45.120Z,63.00
2017-04-08T09:14:43.383Z,62.80
2017-04-08T09:15:41.314Z,63.00
2017-04-08T09:16:39.292Z,62.60
2017-04-08T09:17:36.783Z,62.60
2017-04-08T09:18:34.677Z,62.40
2017-04-08T09:19:32.567Z,62.40
2017-04-08T09:20:30.843Z,62.30
2017-04-08T09:21:29.105Z,62.40
2017-04-08T09:22:27.328Z,62.10
2017-04-08T09:23:25.181Z,62.10
2017-04-08T09:24:23.352Z,62.40
2017-04-08T09:25:21.208Z,62.40
2017-04-08T09:26:19.062Z,62.40
2017-04-08T09:27:16.986Z,62.40
2017-04-08T09:28:14.884Z,62.10
2017-04-08T09:29:12.734Z,62.50
2017-04-08T09:30:10.706Z,62.10
2017-04-08T09:31:08.573Z,62.30
2017-04-08T09:32:06.468Z,61.80
2017-04-08T09:33:04.423Z,61.70
2017-04-08T09:34:02.343Z,61.10
2017-04-08T09:35:00.302Z,60.90
2017-04-08T09:35:58.170Z,61.20
2017-04-08T09:36:55.643Z,61.20
2017-04-08T09:37:53.514Z,61.70
2017-04-08T09:38:51.403Z,61.40
2017-04-08T09:39:49.272Z,61.40
2017-04-08T09:40:46.774Z,61.30
2017-04-08T09:41:44.634Z,61.30
2017-04-08T09:42:42.500Z,61.40
2017-04-08T09:43:40.407Z,61.40
2017-04-08T09:44:38.315Z,62.50
2017-04-08T09:45:36.206Z,61.60
2017-04-08T09:46:34.502Z,61.10
2017-04-08T09:47:33.267Z,61.00
2017-04-08T09:48:31.430Z,60.70
2017-04-08T09:49:29.383Z,60.50
2017-04-08T09:50:27.327Z,60.50
2017-04-08T09:51:25.205Z,60.40
2017-04-08T09:52:24.006Z,60.80
2017-04-08T09:53:21.871Z,60.20
2017-04-08T09:54:19.723Z,59.90
2017-04-08T09:55:17.578Z,60.10
2017-04-08T09:56:15.479Z,59.40
2017-04-08T09:57:13.346Z,59.60
2017-04-08T09:58:10.807Z,59.60
2017-04-08T09:59:08.286Z,59.50
2017-04-08T10:00:06.289Z,59.80
2017-04-08T10:01:03.846Z,59.80
2017-04-08T10:02:01.371Z,60.00
2017-04-08T10:02:59.256Z,60.10
2017-04-08T10:03:57.122Z,58.80
2017-04-08T10:04:55.034Z,58.70
2017-04-08T10:05:52.901Z,59.40
2017-04-08T10:06:51.142Z,59.60
2017-04-08T10:07:49.110Z,59.90
2017-04-08T10:08:46.967Z,60.10
2017-04-08T10:09:44.832Z,60.90
2017-04-08T10:10:42.702Z,60.40
2017-04-08T10:11:40.613Z,60.40
2017-04-08T10:12:38.478Z,59.80
2017-04-08T10:13:36.442Z,59.40
2017-04-08T10:14:34.290Z,59.40
2017-04-08T10:15:32.159Z,59.80
2017-04-08T10:16:30.022Z,59.80
2017-04-08T10:17:27.875Z,60.00
2017-04-08T10:18:25.875Z,59.80
2017-04-08T10:19:24.277Z,59.50
2017-04-08T10:20:22.174Z,59.50
2017-04-08T10:21:20.027Z,59.00
2017-04-08T10:22:18.310Z,58.20
2017-04-08T10:23:16.175Z,58.50
2017-04-08T10:24:14.419Z,59.10
2017-04-08T10:25:12.370Z,59.60
2017-04-08T10:26:10.261Z,60.00
2017-04-08T10:27:08.502Z,59.10
2017-04-08T10:28:06.385Z,59.60
2017-04-08T10:29:04.257Z,59.80
2017-04-08T10:30:02.146Z,60.30
2017-04-08T10:31:00.190Z,60.30
2017-04-08T10:31:58.090Z,60.40
2017-04-08T10:32:56.077Z,60.10
2017-04-08T10:33:53.998Z,60.50
2017-04-08T10:34:51.919Z,60.50
2017-04-08T10:35:49.814Z,61.30
2017-04-08T10:36:47.756Z,61.30
2017-04-08T10:37:45.661Z,60.70
2017-04-08T10:38:43.539Z,60.90
2017-04-08T10:39:41.648Z,60.90
2017-04-08T10:40:39.595Z,61.10
2017-04-08T10:41:37.119Z,61.10
2017-04-08T10:42:35.186Z,60.60
2017-04-08T10:43:32.784Z,60.60
2017-04-08T10:44:31.040Z,60.70
2017-04-08T10:45:28.950Z,60.70
2017-04-08T10:46:26.854Z,60.90
2017-04-08T10:47:24.759Z,61.00
2017-04-08T10:48:23.075Z,61.20
2017-04-08T10:49:21.054Z,61.40
2017-04-08T10:50:18.977Z,61.50
2017-04-08T10:51:17.015Z,61.30
2017-04-08T10:52:15.039Z,61.20
2017-04-08T10:53:12.940Z,61.20
2017-04-08T10:54:10.999Z,61.50
2017-04-08T10:55:08.934Z,61.40
2017-04-08T10:56:06.474Z,61.40
2017-04-08T10:57:04.382Z,61.00
2017-04-08T10:58:02.286Z,61.40
2017-04-08T10:59:00.179Z,60.80
2017-04-08T10:59:57.719Z,60.90
2017-04-08T11:00:56.132Z,60.10
2017-04-08T11:01:54.066Z,60.80
2017-04-08T11:02:51.949Z,61.10
2017-04-08T11:03:49.847Z,61.10
2017-04-08T11:04:47.730Z,61.00
2017-04-08T11:05:45.307Z,61.00
2017-04-08T11:06:42.834Z,61.00
2017-04-08T11:07:40.734Z,61.10
2017-04-08T11:08:38.614Z,61.30
2017-04-08T11:09:36.536Z,61.00
2017-04-08T11:10:34.458Z,60.90
2017-04-08T11:11:32.428Z,60.60
2017-04-08T11:12:30.365Z,60.60
2017-04-08T11:13:28.666Z,60.70
2017-04-08T11:14:26.588Z,60.70
2017-04-08T11:15:24.481Z,60.80
2017-04-08T11:16:22.420Z,61.10
2017-04-08T11:17:20.368Z,61.70
2017-04-08T11:18:18.687Z,61.70
2017-04-08T11:19:16.622Z,61.60
2017-04-08T11:20:14.524Z,61.80
2017-04-08T11:21:12.426Z,61.40
2017-04-08T11:22:10.311Z,61.20
2017-04-08T11:23:08.235Z,61.60
2017-04-08T11:24:06.137Z,61.60
2017-04-08T11:25:04.046Z,61.50
2017-04-08T11:26:02.323Z,61.10
2017-04-08T11:27:00.234Z,61.00
2017-04-08T11:27:58.114Z,61.50
2017-04-08T11:28:56.069Z,61.50
2017-04-08T11:29:53.966Z,61.20
2017-04-08T11:30:51.926Z,61.30
2017-04-08T11:31:49.823Z,61.30
2017-04-08T11:32:47.715Z,60.50
2017-04-08T11:33:45.663Z,60.40
2017-04-08T11:34:43.253Z,60.40
2017-04-08T11:35:41.159Z,61.30
2017-04-08T11:36:39.014Z,61.30
2017-04-08T11:37:36.939Z,61.30
2017-04-08T11:38:34.820Z,61.30
2017-04-08T11:39:32.779Z,61.50
2017-04-08T11:40:30.723Z,61.30
2017-04-08T11:41:28.727Z,61.40
2017-04-08T11:42:26.627Z,61.70
2017-04-08T11:43:24.143Z,61.70
2017-04-08T11:44:22.033Z,61.70
2017-04-08T11:45:20.301Z,61.30
2017-04-08T11:46:18.207Z,60.80
2017-04-08T11:47:16.080Z,60.70
2017-04-08T11:48:14.001Z,60.80
2017-04-08T11:49:11.901Z,61.10
2017-04-08T11:50:09.790Z,61.00
2017-04-08T11:51:07.503Z,61.00
2017-04-08T11:52:05.475Z,61.40
2017-04-08T11:53:03.374Z,61.50
2017-04-08T11:54:01.639Z,61.50
2017-04-08T11:54:59.952Z,61.10
2017-04-08T11:55:57.829Z,61.10
2017-04-08T11:56:55.693Z,60.90
2017-04-08T11:57:53.630Z,60.90
2017-04-08T11:58:51.493Z,60.50
2017-04-08T11:59:49.369Z,60.30
2017-04-08T12:00:47.236Z,60.40
2017-04-08T12:01:44.730Z,60.40
2017-04-08T12:02:42.670Z,59.80
2017-04-08T12:03:40.228Z,59.80
2017-04-08T12:04:38.135Z,59.80
2017-04-08T12:05:35.859Z,59.80
2017-04-08T12:06:33.803Z,59.30
2017-04-08T12:07:31.721Z,59.30
2017-04-08T12:08:29.271Z,59.30
2017-04-08T12:09:27.256Z,59.20
2017-04-08T12:10:25.175Z,58.90
2017-04-08T12:12:27.666Z,58.40
2017-04-08T12:13:25.913Z,58.80
2017-04-08T12:14:24.223Z,59.10
2017-04-08T12:15:22.146Z,59.10
2017-04-08T12:16:20.047Z,58.80
2017-04-08T12:17:17.950Z,58.70
2017-04-08T12:18:16.214Z,58.80
2017-04-08T12:19:14.219Z,58.70
2017-04-08T12:20:11.710Z,58.70
2017-04-08T12:21:09.402Z,58.50
2017-04-08T12:22:07.001Z,58.20
2017-04-08T12:23:04.933Z,57.70
2017-04-08T12:24:02.858Z,58.10
2017-04-08T12:25:00.742Z,58.50
2017-04-08T12:25:58.305Z,58.50
2017-04-08T12:26:56.258Z,57.70